Pierrefonds, Canada
Current Conditions -  °F | °C
As of 8:00 AM on Saturday 25 Oct 2014 (Local Time) from CYUL Reporting Station
Few Clouds Few Clouds  
Wind Chill: 36°   Ceiling: Unl
Heat Index: 43°   Visibility: 30mi
Dew Point: 36°   Wind: 14mph
Humidity: 76%   Direction: 230°SW
Pressure: 29.74"   Gusts: NA
Location:  45.47°N, 73.88°W
Report Text: CYUL 251200Z 23012KT 30SM FEW150 FEW240 06/02 A2974 RMK AC1CI1 AC TR SLP071
Loading
Personal Weather Stations






























Interactive Weather Map
Tropical Storm Tracking
New forecast layout! Learn more

10-Day Weather Forecast

Advertisements
Track Severe Weather on mobile